createdAt,value
2023-02-06T00:01:28.244Z,15.15
2023-02-06T00:03:55.325Z,14.25
2023-02-06T00:06:22.378Z,15.35
2023-02-06T00:08:49.417Z,14.02
2023-02-06T00:11:16.922Z,15.75
2023-02-06T00:13:44.941Z,14.98
2023-02-06T00:16:22.266Z,15.07
2023-02-06T00:18:49.465Z,13.82
2023-02-06T00:21:20.162Z,14.00
2023-02-06T00:23:47.202Z,13.15
2023-02-06T00:26:14.312Z,13.68
2023-02-06T00:28:41.362Z,13.52
2023-02-06T00:31:08.678Z,14.18
2023-02-06T00:33:36.141Z,13.80
2023-02-06T00:36:03.225Z,14.73
2023-02-06T00:38:30.318Z,15.43
2023-02-06T00:40:57.446Z,15.13
2023-02-06T00:43:24.511Z,15.35
2023-02-06T00:45:52.296Z,14.35
2023-02-06T00:48:19.351Z,14.02
2023-02-06T00:50:46.428Z,14.63
2023-02-06T00:53:13.474Z,14.50
2023-02-06T00:55:40.520Z,15.52
2023-02-06T00:58:07.597Z,14.13
2023-02-06T01:00:34.712Z,14.48
2023-02-06T01:03:01.889Z,14.00
2023-02-06T01:05:29.377Z,14.60
2023-02-06T01:07:56.486Z,14.15
2023-02-06T01:10:23.557Z,13.93
2023-02-06T01:12:50.596Z,13.60
2023-02-06T01:15:17.749Z,14.07
2023-02-06T01:17:44.811Z,13.55
2023-02-06T01:20:12.337Z,13.35
2023-02-06T01:22:39.692Z,13.80
2023-02-06T01:25:07.020Z,12.65
2023-02-06T01:27:35.540Z,13.73
2023-02-06T01:30:02.656Z,13.73
2023-02-06T01:32:29.668Z,13.73
2023-02-06T01:34:56.713Z,14.27
2023-02-06T01:37:23.820Z,13.80
2023-02-06T01:39:50.961Z,13.35
2023-02-06T01:42:18.069Z,13.90
2023-02-06T01:44:45.182Z,14.00
2023-02-06T01:47:12.312Z,14.25
2023-02-06T01:49:40.997Z,14.15
2023-02-06T01:52:10.011Z,13.93
2023-02-06T01:54:37.050Z,13.50
2023-02-06T01:57:05.215Z,14.95
2023-02-06T01:59:32.312Z,14.73
2023-02-06T02:01:59.373Z,14.80
2023-02-06T02:04:27.048Z,14.95
2023-02-06T02:06:58.669Z,14.23
2023-02-06T02:09:25.755Z,13.95
2023-02-06T02:11:52.865Z,14.80
2023-02-06T02:14:19.910Z,13.50
2023-02-06T02:16:49.940Z,13.60
2023-02-06T02:19:35.513Z,12.02
2023-02-06T02:22:21.514Z,11.63
2023-02-06T02:25:16.508Z,11.80
2023-02-06T02:27:43.607Z,12.13
2023-02-06T02:30:19.622Z,11.88
2023-02-06T02:32:52.499Z,11.32
2023-02-06T02:35:20.237Z,11.48
2023-02-06T02:37:56.667Z,11.27
2023-02-06T02:40:25.964Z,11.45
2023-02-06T02:43:05.410Z,11.73
2023-02-06T02:45:52.765Z,11.80
2023-02-06T02:48:21.702Z,11.27
2023-02-06T02:50:48.753Z,10.73
2023-02-06T02:53:15.901Z,11.75
2023-02-06T02:55:42.953Z,12.13
2023-02-06T02:58:10.829Z,11.38
2023-02-06T03:00:39.949Z,11.27
2023-02-06T03:03:08.255Z,11.60
2023-02-06T03:05:36.847Z,11.50
2023-02-06T03:08:23.225Z,11.52
2023-02-06T03:10:56.537Z,11.15
2023-02-06T03:13:25.305Z,10.20
2023-02-06T03:16:11.214Z,9.88
2023-02-06T03:18:43.636Z,9.88
2023-02-06T03:21:11.727Z,10.05
2023-02-06T03:23:39.408Z,10.68
2023-02-06T03:26:07.156Z,10.68
2023-02-06T03:28:39.349Z,11.05
2023-02-06T03:31:07.687Z,11.30
2023-02-06T03:33:36.104Z,11.13
2023-02-06T03:36:05.316Z,12.60
2023-02-06T03:38:32.442Z,12.25
2023-02-06T03:40:59.561Z,12.05
2023-02-06T03:43:27.097Z,11.65
2023-02-06T03:45:56.188Z,12.27
2023-02-06T03:48:34.117Z,12.05
2023-02-06T03:51:02.135Z,12.25
2023-02-06T03:53:29.169Z,12.40
2023-02-06T03:55:56.781Z,12.13
2023-02-06T03:58:24.590Z,11.00
2023-02-06T04:00:51.880Z,10.70
2023-02-06T04:03:20.035Z,11.20
2023-02-06T04:05:47.082Z,11.13
2023-02-06T04:08:14.053Z,9.80
2023-02-06T04:10:41.033Z,9.50
2023-02-06T04:13:08.055Z,10.20
2023-02-06T04:15:35.459Z,9.85
2023-02-06T04:18:03.475Z,8.32
2023-02-06T04:20:31.545Z,8.98
2023-02-06T04:22:58.926Z,8.75
2023-02-06T04:25:26.145Z,7.97
2023-02-06T04:27:53.300Z,7.68
2023-02-06T04:30:20.408Z,7.15
2023-02-06T04:32:47.468Z,7.03
2023-02-06T04:35:14.609Z,7.45
2023-02-06T04:37:41.687Z,6.80
2023-02-06T04:40:08.805Z,6.68
2023-02-06T04:42:35.824Z,6.60
2023-02-06T04:45:02.813Z,5.72
2023-02-06T04:47:29.908Z,5.97
2023-02-06T04:49:56.945Z,5.13
2023-02-06T04:52:23.922Z,5.35
2023-02-06T04:54:50.929Z,4.90
2023-02-06T04:57:17.912Z,4.55
2023-02-06T04:59:45.002Z,4.95
2023-02-06T05:02:12.092Z,4.82
2023-02-06T05:04:39.139Z,4.50
2023-02-06T05:07:06.188Z,4.25
2023-02-06T05:09:33.270Z,4.45
2023-02-06T05:12:00.308Z,4.22
2023-02-06T05:14:27.373Z,4.07
2023-02-06T05:16:54.409Z,3.92
2023-02-06T05:19:21.404Z,3.33
2023-02-06T05:21:48.420Z,3.65
2023-02-06T05:24:15.407Z,4.20
2023-02-06T05:26:42.449Z,4.15
2023-02-06T05:29:09.479Z,3.15
2023-02-06T05:31:36.749Z,3.00
2023-02-06T05:34:03.769Z,2.83
2023-02-06T05:36:30.738Z,2.80
2023-02-06T05:38:57.766Z,2.75
2023-02-06T05:41:24.823Z,2.60
2023-02-06T05:43:51.795Z,2.58
2023-02-06T05:46:19.343Z,2.40
2023-02-06T05:48:46.424Z,2.40
2023-02-06T05:51:13.448Z,3.33
2023-02-06T05:53:40.503Z,2.67
2023-02-06T05:56:07.666Z,2.55
2023-02-06T05:58:34.679Z,3.35
2023-02-06T06:01:01.656Z,2.80
2023-02-06T06:03:28.710Z,3.20
2023-02-06T06:05:55.719Z,2.78
2023-02-06T06:08:22.736Z,2.75
2023-02-06T06:10:53.028Z,2.72
2023-02-06T06:13:20.098Z,2.78
2023-02-06T06:15:50.209Z,3.20
2023-02-06T06:18:17.219Z,2.80
2023-02-06T06:20:44.304Z,3.17
2023-02-06T06:23:11.343Z,3.03
2023-02-06T06:25:38.405Z,3.30
2023-02-06T06:28:05.564Z,3.50
2023-02-06T06:30:34.266Z,3.55
2023-02-06T06:33:02.373Z,3.58
2023-02-06T06:35:29.416Z,3.65
2023-02-06T06:37:56.441Z,4.18
2023-02-06T06:40:23.477Z,3.30
2023-02-06T06:42:50.574Z,3.75
2023-02-06T06:45:17.680Z,3.63
2023-02-06T06:47:44.653Z,3.50
2023-02-06T06:50:11.661Z,3.60
2023-02-06T06:52:38.699Z,3.90
2023-02-06T06:55:05.855Z,3.97
2023-02-06T06:57:32.939Z,3.10
2023-02-06T06:59:59.956Z,3.50
2023-02-06T07:02:28.377Z,3.13
2023-02-06T07:04:55.651Z,3.35
2023-02-06T07:07:22.746Z,4.20
2023-02-06T07:09:49.783Z,3.17
2023-02-06T07:12:16.789Z,3.60
2023-02-06T07:14:43.813Z,3.60
2023-02-06T07:17:10.817Z,3.65
2023-02-06T07:19:37.918Z,4.22
2023-02-06T07:22:05.012Z,4.05
2023-02-06T07:24:32.013Z,4.15
2023-02-06T07:26:58.996Z,4.10
2023-02-06T07:29:25.960Z,4.07
2023-02-06T07:31:53.093Z,3.95
2023-02-06T07:34:20.131Z,3.95
2023-02-06T07:36:47.538Z,3.65
2023-02-06T07:39:14.632Z,3.97
2023-02-06T07:41:41.697Z,3.80
2023-02-06T07:44:08.861Z,3.88
2023-02-06T07:46:35.958Z,4.00
2023-02-06T07:49:02.978Z,4.22
2023-02-06T07:51:29.993Z,4.38
2023-02-06T07:53:56.959Z,3.80
2023-02-06T07:56:25.100Z,4.70
2023-02-06T07:58:52.996Z,4.15
2023-02-06T08:01:20.556Z,3.85
2023-02-06T08:03:49.774Z,4.20
2023-02-06T08:06:16.778Z,4.80
2023-02-06T08:08:43.926Z,4.47
2023-02-06T08:11:15.102Z,4.82
2023-02-06T08:13:42.853Z,4.65
2023-02-06T08:16:14.252Z,4.63
2023-02-06T08:18:41.315Z,4.82
2023-02-06T08:21:11.721Z,4.95
2023-02-06T08:23:38.919Z,4.82
2023-02-06T08:26:07.624Z,4.90
2023-02-06T08:28:37.343Z,4.72
2023-02-06T08:31:11.886Z,4.43
2023-02-06T08:33:38.974Z,4.80
2023-02-06T08:36:06.257Z,5.22
2023-02-06T08:38:33.297Z,5.25
2023-02-06T08:41:00.309Z,4.75
2023-02-06T08:43:27.395Z,5.50
2023-02-06T08:45:56.246Z,6.95
2023-02-06T08:48:23.398Z,4.82
2023-02-06T08:50:50.553Z,4.03
2023-02-06T08:53:17.521Z,3.50
2023-02-06T08:55:44.536Z,3.63
2023-02-06T08:58:11.493Z,3.72
2023-02-06T09:00:39.085Z,3.63
2023-02-06T09:03:06.091Z,3.58
2023-02-06T09:05:33.131Z,3.78
2023-02-06T09:08:00.212Z,4.00
2023-02-06T09:10:28.183Z,3.50
2023-02-06T09:12:55.510Z,4.10
2023-02-06T09:15:22.617Z,4.53
2023-02-06T09:17:49.628Z,4.50
2023-02-06T09:20:16.778Z,4.38
2023-02-06T09:22:44.641Z,4.47
2023-02-06T09:25:11.750Z,4.55
2023-02-06T09:27:38.822Z,4.07
2023-02-06T09:30:06.011Z,5.07
2023-02-06T09:32:33.091Z,4.82
2023-02-06T09:35:00.121Z,4.80
2023-02-06T09:37:27.099Z,4.40
2023-02-06T09:39:54.119Z,4.75
2023-02-06T09:42:25.203Z,4.35
2023-02-06T09:44:54.331Z,4.55
2023-02-06T09:47:25.386Z,4.40
2023-02-06T09:49:57.618Z,5.03
2023-02-06T09:52:30.772Z,4.97
2023-02-06T09:55:10.037Z,4.63
2023-02-06T09:57:55.889Z,4.55
2023-02-06T10:00:29.509Z,4.80
2023-02-06T10:03:03.597Z,4.45
2023-02-06T10:05:36.617Z,4.65
2023-02-06T10:08:30.216Z,4.75
2023-02-06T10:10:57.794Z,4.68
2023-02-06T10:13:26.962Z,4.88
2023-02-06T10:15:58.711Z,5.10
2023-02-06T10:18:35.048Z,5.38
2023-02-06T10:21:07.671Z,5.10
2023-02-06T10:23:37.143Z,5.40
2023-02-06T10:26:05.796Z,5.22
2023-02-06T10:28:35.234Z,5.15
2023-02-06T10:31:25.353Z,4.63
2023-02-06T10:33:52.495Z,4.20
2023-02-06T10:36:24.951Z,4.60
2023-02-06T10:39:05.978Z,3.80
2023-02-06T10:41:36.050Z,4.32
2023-02-06T10:44:11.654Z,4.55
2023-02-06T10:46:42.775Z,3.97
2023-02-06T10:49:30.269Z,4.32
2023-02-06T10:51:58.454Z,4.57
2023-02-06T10:54:26.650Z,4.68
2023-02-06T10:56:54.356Z,4.20
2023-02-06T10:59:30.277Z,4.78
2023-02-06T11:02:16.182Z,4.70
2023-02-06T11:04:45.113Z,4.65
2023-02-06T11:07:16.689Z,4.40
2023-02-06T11:09:44.042Z,4.88
2023-02-06T11:12:23.303Z,4.40
2023-02-06T11:14:50.292Z,4.53
2023-02-06T11:17:17.509Z,3.92
2023-02-06T11:19:44.588Z,4.28
2023-02-06T11:22:12.367Z,4.10
2023-02-06T11:24:39.588Z,4.30
2023-02-06T11:27:14.883Z,3.88
2023-02-06T11:29:45.845Z,3.75
2023-02-06T11:32:29.511Z,4.32
2023-02-06T11:35:19.857Z,3.60
2023-02-06T11:37:46.876Z,3.53
2023-02-06T11:43:18.863Z,3.60
2023-02-06T11:45:47.205Z,3.33
2023-02-06T11:48:33.178Z,3.55
2023-02-06T11:51:00.179Z,3.45
2023-02-06T11:53:27.203Z,2.88
2023-02-06T11:56:01.563Z,3.53
2023-02-06T11:58:28.840Z,2.75
2023-02-06T12:00:57.356Z,3.13
2023-02-06T12:03:27.149Z,2.92
2023-02-06T12:05:54.154Z,3.88
2023-02-06T12:08:24.204Z,3.22
2023-02-06T12:10:54.669Z,3.17
2023-02-06T12:15:49.948Z,3.50
2023-02-06T12:18:20.147Z,3.08
2023-02-06T12:20:54.456Z,2.85
2023-02-06T12:23:23.230Z,2.20
2023-02-06T12:25:50.599Z,2.25
2023-02-06T12:28:36.241Z,2.53
2023-02-06T12:31:23.764Z,1.90
2023-02-06T12:33:55.400Z,2.20
2023-02-06T12:36:25.445Z,1.92
2023-02-06T12:39:02.351Z,2.55
2023-02-06T12:41:35.998Z,1.98
2023-02-06T12:44:21.978Z,2.38
2023-02-06T12:46:50.976Z,2.40
2023-02-06T12:49:25.877Z,2.40
2023-02-06T12:52:02.780Z,2.40
2023-02-06T12:54:31.521Z,2.42
2023-02-06T12:57:04.623Z,2.35
2023-02-06T12:59:31.644Z,2.33
2023-02-06T13:02:17.341Z,2.08
2023-02-06T13:04:44.400Z,2.30
2023-02-06T13:07:12.302Z,2.30
2023-02-06T13:09:41.847Z,1.90
2023-02-06T13:12:15.825Z,2.07
2023-02-06T13:14:46.931Z,1.63
2023-02-06T13:17:20.964Z,2.35
2023-02-06T13:19:48.045Z,2.00
2023-02-06T13:22:19.311Z,2.55
2023-02-06T13:24:50.160Z,2.17
2023-02-06T13:27:18.096Z,2.17
2023-02-06T13:29:48.793Z,2.17
2023-02-06T13:32:31.293Z,2.20
2023-02-06T13:35:07.758Z,1.98
2023-02-06T13:37:37.602Z,2.05
2023-02-06T13:40:23.188Z,2.22
2023-02-06T13:42:51.730Z,2.00
2023-02-06T13:45:22.131Z,2.47
2023-02-06T13:48:04.428Z,2.03
2023-02-06T13:50:51.806Z,2.83
2023-02-06T13:53:57.879Z,2.53
2023-02-06T13:56:37.459Z,1.85
2023-02-06T13:59:07.426Z,2.05
2023-02-06T14:01:34.539Z,1.75
2023-02-06T14:04:01.560Z,2.00
2023-02-06T14:06:34.756Z,1.90
2023-02-06T14:09:01.787Z,2.05
2023-02-06T14:11:28.789Z,1.73
2023-02-06T14:14:01.916Z,1.85
2023-02-06T14:16:35.355Z,1.80
2023-02-06T14:19:17.328Z,2.30
2023-02-06T14:22:03.981Z,1.90
2023-02-06T14:24:49.573Z,2.15
2023-02-06T14:27:46.037Z,1.73
2023-02-06T14:30:15.959Z,1.67
2023-02-06T14:32:58.995Z,2.05
2023-02-06T14:35:38.754Z,2.17
2023-02-06T14:38:24.698Z,1.70
2023-02-06T14:40:52.462Z,2.60
2023-02-06T14:43:23.642Z,1.70
2023-02-06T14:46:05.696Z,2.30
2023-02-06T14:48:39.349Z,1.45
2023-02-06T14:51:06.485Z,1.50
2023-02-06T14:53:35.364Z,1.95
2023-02-06T14:56:09.472Z,1.95
2023-02-06T14:58:36.470Z,1.90
2023-02-06T15:01:32.814Z,2.00
2023-02-06T15:04:18.575Z,1.95
2023-02-06T15:06:51.417Z,4.50
2023-02-06T15:09:32.277Z,4.20
2023-02-06T15:12:00.157Z,4.15
2023-02-06T15:14:36.183Z,2.13
2023-02-06T15:17:03.471Z,2.58
2023-02-06T15:19:31.281Z,2.30
2023-02-06T15:22:02.376Z,2.20
2023-02-06T15:24:42.341Z,2.63
2023-02-06T15:27:48.004Z,2.10
2023-02-06T15:30:19.553Z,2.60
2023-02-06T15:32:48.650Z,2.25
2023-02-06T15:35:25.645Z,2.40
2023-02-06T15:37:53.484Z,2.38
2023-02-06T15:40:22.881Z,2.50
2023-02-06T15:42:49.993Z,2.70
2023-02-06T15:45:46.415Z,2.10
2023-02-06T15:48:23.540Z,2.47
2023-02-06T15:51:08.958Z,3.30
2023-02-06T15:53:38.113Z,2.85
2023-02-06T15:56:06.036Z,2.40
2023-02-06T15:58:33.392Z,3.85
2023-02-06T16:01:00.659Z,3.30
2023-02-06T16:03:28.148Z,3.28
2023-02-06T16:05:56.414Z,5.18
2023-02-06T16:08:28.521Z,4.03
2023-02-06T16:11:00.020Z,3.40
2023-02-06T16:13:28.920Z,11.13
2023-02-06T16:16:02.048Z,4.97
2023-02-06T16:18:36.209Z,6.93
2023-02-06T16:21:18.556Z,4.03
2023-02-06T16:23:46.666Z,3.20
2023-02-06T16:26:21.611Z,2.95
2023-02-06T16:28:51.252Z,2.78
2023-02-06T16:31:18.383Z,2.83
2023-02-06T16:33:46.283Z,3.33
2023-02-06T16:36:14.023Z,2.92
2023-02-06T16:38:43.133Z,3.05
2023-02-06T16:41:23.217Z,3.33
2023-02-06T16:43:50.213Z,4.00
2023-02-06T16:46:17.217Z,5.53
2023-02-06T16:48:44.293Z,5.05
2023-02-06T16:51:17.997Z,3.35
2023-02-06T16:53:45.369Z,2.78
2023-02-06T16:56:12.992Z,4.80
2023-02-06T16:58:40.023Z,3.38
2023-02-06T17:01:11.808Z,9.63
2023-02-06T17:03:39.254Z,3.13
2023-02-06T17:06:07.193Z,2.95
2023-02-06T17:08:34.908Z,3.25
2023-02-06T17:11:02.024Z,3.70
2023-02-06T17:13:29.074Z,3.42
2023-02-06T17:15:56.190Z,3.45
2023-02-06T17:18:23.674Z,3.30
2023-02-06T17:20:52.655Z,3.33
2023-02-06T17:23:20.070Z,4.60
2023-02-06T17:25:47.122Z,3.88
2023-02-06T17:28:15.400Z,4.20
2023-02-06T17:30:42.494Z,3.72
2023-02-06T17:33:09.609Z,4.00
2023-02-06T17:35:37.014Z,5.72
2023-02-06T17:38:08.115Z,4.57
2023-02-06T17:40:35.985Z,4.30
2023-02-06T17:43:04.533Z,4.32
2023-02-06T17:45:31.643Z,4.68
2023-02-06T17:47:58.706Z,5.28
2023-02-06T17:50:26.238Z,5.43
2023-02-06T17:52:55.450Z,5.72
2023-02-06T17:55:23.089Z,5.10
2023-02-06T17:57:50.361Z,4.38
2023-02-06T18:00:17.974Z,4.43
2023-02-06T18:02:45.176Z,4.72
2023-02-06T18:05:12.272Z,5.45
2023-02-06T18:07:52.721Z,5.97
2023-02-06T18:10:20.260Z,4.82
2023-02-06T18:12:47.444Z,3.55
2023-02-06T18:15:14.586Z,4.28
2023-02-06T18:17:42.298Z,4.50
2023-02-06T18:20:09.865Z,6.13
2023-02-06T18:22:41.082Z,6.68
2023-02-06T18:25:09.706Z,5.25
2023-02-06T18:27:36.939Z,6.07
2023-02-06T18:30:04.910Z,5.43
2023-02-06T18:32:33.974Z,4.43
2023-02-06T18:35:01.196Z,4.80
2023-02-06T18:37:28.247Z,4.72
2023-02-06T18:39:55.863Z,5.82
2023-02-06T18:42:41.561Z,5.50
2023-02-06T18:45:08.911Z,6.13
2023-02-06T18:47:36.067Z,5.55
2023-02-06T18:50:03.166Z,5.70
2023-02-06T18:52:30.297Z,5.70
2023-02-06T18:54:57.438Z,5.43
2023-02-06T18:57:24.561Z,5.22
2023-02-06T18:59:51.721Z,4.65
2023-02-06T19:02:18.911Z,4.82
2023-02-06T19:04:46.074Z,5.55
2023-02-06T19:07:13.788Z,5.78
2023-02-06T19:09:40.955Z,6.00
2023-02-06T19:12:08.276Z,6.50
2023-02-06T19:14:35.733Z,5.78
2023-02-06T19:17:02.758Z,5.90
2023-02-06T19:19:29.859Z,7.22
2023-02-06T19:21:57.740Z,6.38
2023-02-06T19:24:26.227Z,7.75
2023-02-06T19:26:53.381Z,6.50
2023-02-06T19:29:33.572Z,5.90
2023-02-06T19:32:02.175Z,6.05
2023-02-06T19:34:29.262Z,6.43
2023-02-06T19:36:56.385Z,6.85
2023-02-06T19:39:23.518Z,7.43
2023-02-06T19:41:50.566Z,7.80
2023-02-06T19:44:17.669Z,5.63
2023-02-06T19:46:44.725Z,5.53
2023-02-06T19:49:11.891Z,5.53
2023-02-06T19:51:39.948Z,5.55
2023-02-06T19:54:07.092Z,3.80
2023-02-06T19:56:37.334Z,4.10
2023-02-06T19:59:05.497Z,4.15
2023-02-06T20:01:32.759Z,3.70
2023-02-06T20:04:00.245Z,4.20
2023-02-06T20:06:28.361Z,4.35
2023-02-06T20:08:56.525Z,3.47
2023-02-06T20:11:23.657Z,3.85
2023-02-06T20:13:55.524Z,3.53
2023-02-06T20:16:23.544Z,3.15
2023-02-06T20:18:50.676Z,3.40
2023-02-06T20:21:31.246Z,3.75
2023-02-06T20:24:00.535Z,2.75
2023-02-06T20:26:28.859Z,2.88
2023-02-06T20:28:56.010Z,2.95
2023-02-06T20:31:23.340Z,3.47
2023-02-06T20:33:50.619Z,2.83
2023-02-06T20:36:19.968Z,3.78
2023-02-06T20:38:50.803Z,3.45
2023-02-06T20:41:17.909Z,3.22
2023-02-06T20:43:47.798Z,3.10
2023-02-06T20:46:17.252Z,3.08
2023-02-06T20:48:47.788Z,3.95
2023-02-06T20:51:15.031Z,3.70
2023-02-06T20:53:42.055Z,3.53
2023-02-06T20:56:09.815Z,3.15
2023-02-06T20:58:36.886Z,3.40
2023-02-06T21:01:11.979Z,4.70
2023-02-06T21:03:39.302Z,5.18
2023-02-06T21:06:06.502Z,7.10
2023-02-06T21:08:34.661Z,3.40
2023-02-06T21:11:01.753Z,3.85
2023-02-06T21:13:28.844Z,5.05
2023-02-06T21:15:57.425Z,3.38
2023-02-06T21:18:31.480Z,3.65
2023-02-06T21:20:58.833Z,3.60
2023-02-06T21:23:25.914Z,3.70
2023-02-06T21:25:53.545Z,3.60
2023-02-06T21:28:20.758Z,3.50
2023-02-06T21:30:49.142Z,3.88
2023-02-06T21:33:16.703Z,4.20
2023-02-06T21:35:50.691Z,3.58
2023-02-06T21:38:17.880Z,3.60
2023-02-06T21:40:45.200Z,3.13
2023-02-06T21:43:12.592Z,2.92
2023-02-06T21:45:39.818Z,4.00
2023-02-06T21:48:06.983Z,3.80
2023-02-06T21:50:34.321Z,3.13
2023-02-06T21:53:01.338Z,3.88
2023-02-06T21:55:31.439Z,3.20
2023-02-06T21:58:01.775Z,3.55
2023-02-06T22:00:29.057Z,4.40
2023-02-06T22:02:56.198Z,3.95
2023-02-06T22:05:23.918Z,4.07
2023-02-06T22:07:51.023Z,3.83
2023-02-06T22:10:18.202Z,3.60
2023-02-06T22:12:48.854Z,3.20
2023-02-06T22:15:16.019Z,3.45
2023-02-06T22:17:43.074Z,3.03
2023-02-06T22:20:10.237Z,3.25
2023-02-06T22:22:38.673Z,3.03
2023-02-06T22:25:07.954Z,2.83
2023-02-06T22:27:35.136Z,4.85
2023-02-06T22:30:02.260Z,6.25
2023-02-06T22:32:29.360Z,2.15
2023-02-06T22:34:59.239Z,2.13
2023-02-06T22:37:26.298Z,2.55
2023-02-06T22:39:56.307Z,3.08
2023-02-06T22:42:23.461Z,2.42
2023-02-06T22:44:50.610Z,2.10
2023-02-06T22:47:17.747Z,2.25
2023-02-06T22:49:44.930Z,2.10
2023-02-06T22:52:30.431Z,2.10
2023-02-06T22:54:57.437Z,2.00
2023-02-06T22:57:24.566Z,1.98
2023-02-06T22:59:51.619Z,2.25
2023-02-06T23:02:18.777Z,2.10
2023-02-06T23:04:45.825Z,1.95
2023-02-06T23:07:12.849Z,1.90
2023-02-06T23:09:40.517Z,2.15
2023-02-06T23:12:09.642Z,2.17
2023-02-06T23:14:36.852Z,2.10
2023-02-06T23:17:04.068Z,2.08
2023-02-06T23:19:31.137Z,2.38
2023-02-06T23:21:58.349Z,2.00
2023-02-06T23:24:25.469Z,2.40
2023-02-06T23:26:53.574Z,3.10
2023-02-06T23:29:20.853Z,3.10
2023-02-06T23:31:47.991Z,5.65
2023-02-06T23:34:15.232Z,5.75
2023-02-06T23:36:42.401Z,4.07
2023-02-06T23:39:09.530Z,3.65
2023-02-06T23:41:36.605Z,2.78
2023-02-06T23:44:04.886Z,1.90
2023-02-06T23:46:32.623Z,2.00
2023-02-06T23:48:59.930Z,2.78
2023-02-06T23:51:27.038Z,2.10
2023-02-06T23:53:54.305Z,3.05
2023-02-06T23:56:23.027Z,2.58
2023-02-06T23:58:50.174Z,2.45
